Portada
METAR-TAF:

METAR-TAF

Aeropuertos :

Recife, Pernambuco, Brasil

Aeropuerto Internacional de Recife

latitud: 08-08S, longitud: 034-55W, altitud: 19 m

Observación

El informe se hizo hace 55 minutos, a las 10:00 UTC
Viento 5 kt del este-noreste
Temperatura 27°C
Humedad 79%
Presión 1014 hPa
Visibilidad 10 km o más
Nubes dispersas a una altura de 2300 ft
Cielo nuboso a una altura de 7000 ft

METAR: SBRF 301000Z 07005KT 9999 SCT023 BKN070 27/23 Q1014

Hora: 07:55 (10:55 UTC)

Pronóstico

El informe se hizo hace 7 horas y 55 minutos, a las 03:00 UTC
Pronóstico válido del 30 a las 06 UTC al 01 a las 06 UTC
Viento 4 kt del suroeste
Visibilidad: 8000 m
Nubes dispersas a una altura de 2000 ft
Evolucionando progresivamente
del 30 a las 11 UTC al 30 a las 13 UTC
Viento 9 kt del sureste

TAF: SBRF 300300Z 3006/0106 22004KT 8000 SCT020 TN26/3008Z TX30/3015Z BECMG 3011/3013 13009KT RMK PEA

Observaciones y pronósticos meteorológicos de más de 4000 aeropuertos (mensajes METAR y TAF).

Los puntos amarillos y rojos representan las estaciones disponibles.

Ponga el ratón en el punto deseado para ver el nombre de la estación.

Haga clic para ver las observaciones y los pronósticos meteorológicos.

Para cambiar el mapa : haga clic en los botones verdes con una cruz de color negro para hacer un zoom, en el botón verde con un guión para alejar o en las flechas verdes para mapas adyacentes.


METAR-TAF: